sensor_id;sensor_type;location;lat;lon;timestamp;pressure;altitude;pressure_sealevel;temperature;humidity
71361;BME280;59166;48.908;1.870;2023-03-20T00:04:51;100917.03;;;4.59;95.12
71361;BME280;59166;48.908;1.870;2023-03-20T00:09:52;100916.19;;;4.52;95.00
71361;BME280;59166;48.908;1.870;2023-03-20T00:14:54;100927.31;;;4.43;95.70
71361;BME280;59166;48.908;1.870;2023-03-20T00:19:55;100926.91;;;4.46;94.69
71361;BME280;59166;48.908;1.870;2023-03-20T00:24:55;100915.38;;;4.39;96.38
71361;BME280;59166;48.908;1.870;2023-03-20T00:29:57;100925.47;;;4.37;96.42
71361;BME280;59166;48.908;1.870;2023-03-20T00:34:58;100917.63;;;4.35;95.83
71361;BME280;59166;48.908;1.870;2023-03-20T00:39:59;100916.19;;;4.33;95.93
71361;BME280;59166;48.908;1.870;2023-03-20T00:45:01;100916.44;;;4.31;97.11
71361;BME280;59166;48.908;1.870;2023-03-20T00:50:01;100911.88;;;4.25;96.80
71361;BME280;59166;48.908;1.870;2023-03-20T00:55:06;100900.97;;;4.20;97.30
71361;BME280;59166;48.908;1.870;2023-03-20T01:00:19;100915.59;;;4.17;97.38
71361;BME280;59166;48.908;1.870;2023-03-20T01:05:20;100909.59;;;4.15;98.55
71361;BME280;59166;48.908;1.870;2023-03-20T01:10:22;100912.50;;;4.14;98.56
71361;BME280;59166;48.908;1.870;2023-03-20T01:15:30;100918.03;;;4.12;98.67
71361;BME280;59166;48.908;1.870;2023-03-20T01:20:31;100917.19;;;4.12;98.22
71361;BME280;59166;48.908;1.870;2023-03-20T01:25:32;100922.75;;;4.10;98.71
71361;BME280;59166;48.908;1.870;2023-03-20T01:30:34;100924.41;;;4.11;98.46
71361;BME280;59166;48.908;1.870;2023-03-20T01:35:35;100912.66;;;4.06;98.75
71361;BME280;59166;48.908;1.870;2023-03-20T01:40:49;100911.44;;;4.08;97.93
71361;BME280;59166;48.908;1.870;2023-03-20T01:45:56;100905.47;;;4.06;98.14
71361;BME280;59166;48.908;1.870;2023-03-20T01:50:58;100904.22;;;4.02;98.72
71361;BME280;59166;48.908;1.870;2023-03-20T01:55:59;100894.97;;;3.98;98.78
71361;BME280;59166;48.908;1.870;2023-03-20T02:01:01;100906.06;;;3.95;99.29
71361;BME280;59166;48.908;1.870;2023-03-20T02:06:03;100902.38;;;3.90;99.16
71361;BME280;59166;48.908;1.870;2023-03-20T02:11:05;100904.22;;;3.89;99.20
71361;BME280;59166;48.908;1.870;2023-03-20T02:16:10;100886.31;;;3.83;100.00
71361;BME280;59166;48.908;1.870;2023-03-20T02:21:29;100895.19;;;3.90;100.00
71361;BME280;59166;48.908;1.870;2023-03-20T02:26:48;100902.16;;;3.91;99.96
71361;BME280;59166;48.908;1.870;2023-03-20T02:32:10;100890.00;;;3.82;99.83
71361;BME280;59166;48.908;1.870;2023-03-20T02:37:43;100902.09;;;3.72;100.00
71361;BME280;59166;48.908;1.870;2023-03-20T02:42:54;100900.03;;;3.67;100.00
71361;BME280;59166;48.908;1.870;2023-03-20T02:48:05;100889.78;;;3.71;100.00
71361;BME280;59166;48.908;1.870;2023-03-20T02:53:18;100884.03;;;3.67;99.90
71361;BME280;59166;48.908;1.870;2023-03-20T02:58:25;100875.97;;;3.54;100.00
71361;BME280;59166;48.908;1.870;2023-03-20T03:03:31;100871.22;;;3.49;100.00
71361;BME280;59166;48.908;1.870;2023-03-20T03:08:38;100874.06;;;3.48;100.00
71361;BME280;59166;48.908;1.870;2023-03-20T03:13:44;100878.81;;;3.46;100.00
71361;BME280;59166;48.908;1.870;2023-03-20T03:18:48;100883.94;;;3.47;100.00
71361;BME280;59166;48.908;1.870;2023-03-20T03:23:51;100871.63;;;3.53;100.00
71361;BME280;59166;48.908;1.870;2023-03-20T03:28:56;100856.88;;;3.57;100.00
71361;BME280;59166;48.908;1.870;2023-03-20T03:33:58;100864.91;;;3.63;100.00
71361;BME280;59166;48.908;1.870;2023-03-20T03:39:07;100844.97;;;3.66;100.00
71361;BME280;59166;48.908;1.870;2023-03-20T03:44:14;100854.81;;;3.65;100.00
71361;BME280;59166;48.908;1.870;2023-03-20T03:49:20;100853.00;;;3.73;100.00
71361;BME280;59166;48.908;1.870;2023-03-20T03:54:25;100852.56;;;3.69;100.00
71361;BME280;59166;48.908;1.870;2023-03-20T03:59:32;100851.97;;;3.67;100.00
71361;BME280;59166;48.908;1.870;2023-03-20T04:04:39;100853.41;;;3.69;100.00
71361;BME280;59166;48.908;1.870;2023-03-20T04:09:43;100877.84;;;3.66;100.00
71361;BME280;59166;48.908;1.870;2023-03-20T04:14:44;100875.78;;;3.62;100.00
71361;BME280;59166;48.908;1.870;2023-03-20T04:19:45;100875.16;;;3.60;100.00
71361;BME280;59166;48.908;1.870;2023-03-20T04:24:47;100877.63;;;3.61;100.00
71361;BME280;59166;48.908;1.870;2023-03-20T04:29:47;100875.78;;;3.62;100.00
71361;BME280;59166;48.908;1.870;2023-03-20T04:34:48;100878.69;;;3.67;100.00
71361;BME280;59166;48.908;1.870;2023-03-20T04:39:50;100874.19;;;3.74;100.00
71361;BME280;59166;48.908;1.870;2023-03-20T04:44:50;100871.31;;;3.82;100.00
71361;BME280;59166;48.908;1.870;2023-03-20T04:49:51;100868.63;;;3.89;100.00
71361;BME280;59166;48.908;1.870;2023-03-20T04:54:53;100871.53;;;3.94;100.00
71361;BME280;59166;48.908;1.870;2023-03-20T04:59:54;100870.72;;;4.00;100.00
71361;BME280;59166;48.908;1.870;2023-03-20T05:04:54;100874.81;;;4.02;100.00
71361;BME280;59166;48.908;1.870;2023-03-20T05:09:56;100872.78;;;4.04;100.00
71361;BME280;59166;48.908;1.870;2023-03-20T05:14:58;100869.72;;;4.07;100.00
71361;BME280;59166;48.908;1.870;2023-03-20T05:19:59;100859.44;;;4.11;100.00
71361;BME280;59166;48.908;1.870;2023-03-20T05:25:01;100859.84;;;4.14;100.00
71361;BME280;59166;48.908;1.870;2023-03-20T05:30:01;100858.38;;;4.18;100.00
71361;BME280;59166;48.908;1.870;2023-03-20T05:35:02;100869.31;;;4.24;100.00
71361;BME280;59166;48.908;1.870;2023-03-20T05:40:06;100876.09;;;4.26;100.00
71361;BME280;59166;48.908;1.870;2023-03-20T05:45:08;100870.31;;;4.29;100.00
71361;BME280;59166;48.908;1.870;2023-03-20T05:50:10;100862.94;;;4.31;100.00
71361;BME280;59166;48.908;1.870;2023-03-20T05:55:12;100865.19;;;4.34;100.00
71361;BME280;59166;48.908;1.870;2023-03-20T06:00:14;100866.44;;;4.38;100.00
71361;BME280;59166;48.908;1.870;2023-03-20T06:05:15;100879.16;;;4.43;100.00
71361;BME280;59166;48.908;1.870;2023-03-20T06:10:17;100885.56;;;4.48;100.00
71361;BME280;59166;48.908;1.870;2023-03-20T06:15:18;100880.22;;;4.55;100.00
71361;BME280;59166;48.908;1.870;2023-03-20T06:20:18;100868.84;;;4.66;100.00
71361;BME280;59166;48.908;1.870;2023-03-20T06:25:20;100864.97;;;4.75;100.00
71361;BME280;59166;48.908;1.870;2023-03-20T06:30:21;100878.72;;;4.85;100.00
71361;BME280;59166;48.908;1.870;2023-03-20T06:35:21;100874.59;;;4.89;100.00
71361;BME280;59166;48.908;1.870;2023-03-20T06:40:24;100869.25;;;4.96;100.00
71361;BME280;59166;48.908;1.870;2023-03-20T06:45:25;100870.41;;;5.06;100.00
71361;BME280;59166;48.908;1.870;2023-03-20T06:50:25;100872.66;;;5.22;100.00
71361;BME280;59166;48.908;1.870;2023-03-20T06:55:27;100868.28;;;5.35;100.00
71361;BME280;59166;48.908;1.870;2023-03-20T07:00:28;100873.19;;;5.44;100.00
71361;BME280;59166;48.908;1.870;2023-03-20T07:05:29;100876.03;;;5.56;100.00
71361;BME280;59166;48.908;1.870;2023-03-20T07:10:31;100877.59;;;5.70;100.00
71361;BME280;59166;48.908;1.870;2023-03-20T07:15:31;100880.63;;;5.80;100.00
71361;BME280;59166;48.908;1.870;2023-03-20T07:20:32;100882.41;;;5.93;100.00
71361;BME280;59166;48.908;1.870;2023-03-20T07:25:34;100890.97;;;6.08;99.57
71361;BME280;59166;48.908;1.870;2023-03-20T07:30:34;100886.50;;;6.26;98.84
71361;BME280;59166;48.908;1.870;2023-03-20T07:35:35;100887.44;;;6.39;99.33
71361;BME280;59166;48.908;1.870;2023-03-20T07:40:37;100882.63;;;6.54;99.28
71361;BME280;59166;48.908;1.870;2023-03-20T07:45:38;100875.25;;;6.67;98.01
71361;BME280;59166;48.908;1.870;2023-03-20T07:50:38;100884.53;;;6.90;97.71
71361;BME280;59166;48.908;1.870;2023-03-20T07:55:42;100888.53;;;7.05;95.67
71361;BME280;59166;48.908;1.870;2023-03-20T08:00:43;100896.94;;;7.27;93.74
71361;BME280;59166;48.908;1.870;2023-03-20T08:05:44;100908.44;;;7.34;93.83
71361;BME280;59166;48.908;1.870;2023-03-20T08:10:46;100905.00;;;7.45;95.36
71361;BME280;59166;48.908;1.870;2023-03-20T08:15:46;100908.28;;;7.65;93.35
71361;BME280;59166;48.908;1.870;2023-03-20T08:20:47;100910.03;;;7.90;94.34
71361;BME280;59166;48.908;1.870;2023-03-20T08:25:50;100921.09;;;8.11;94.15
71361;BME280;59166;48.908;1.870;2023-03-20T08:30:51;100919.69;;;8.50;89.24
71361;BME280;59166;48.908;1.870;2023-03-20T08:35:55;100924.13;;;8.56;89.86
71361;BME280;59166;48.908;1.870;2023-03-20T08:40:57;100926.81;;;8.68;89.04
71361;BME280;59166;48.908;1.870;2023-03-20T08:45:58;100914.69;;;8.89;89.52
71361;BME280;59166;48.908;1.870;2023-03-20T08:50:59;100915.63;;;9.17;88.05
71361;BME280;59166;48.908;1.870;2023-03-20T08:56:01;100905.72;;;9.58;86.45
71361;BME280;59166;48.908;1.870;2023-03-20T09:01:05;100901.78;;;9.77;85.37
71361;BME280;59166;48.908;1.870;2023-03-20T09:06:07;100910.06;;;10.15;82.89
71361;BME280;59166;48.908;1.870;2023-03-20T09:11:10;100907.91;;;10.79;79.05
71361;BME280;59166;48.908;1.870;2023-03-20T09:16:10;100905.75;;;11.36;77.23
71361;BME280;59166;48.908;1.870;2023-03-20T09:21:11;100902.41;;;11.72;73.99
71361;BME280;59166;48.908;1.870;2023-03-20T09:26:13;100907.41;;;12.07;72.77
71361;BME280;59166;48.908;1.870;2023-03-20T09:31:14;100906.69;;;12.17;69.93
71361;BME280;59166;48.908;1.870;2023-03-20T09:36:15;100917.44;;;12.33;69.13
71361;BME280;59166;48.908;1.870;2023-03-20T09:41:20;100915.88;;;12.16;68.36
71361;BME280;59166;48.908;1.870;2023-03-20T09:46:38;100915.03;;;12.10;65.13
71361;BME280;59166;48.908;1.870;2023-03-20T09:51:45;100908.88;;;11.93;66.71
71361;BME280;59166;48.908;1.870;2023-03-20T09:56:50;100913.34;;;12.04;66.67
71361;BME280;59166;48.908;1.870;2023-03-20T10:01:53;100910.00;;;12.24;65.80
71361;BME280;59166;48.908;1.870;2023-03-20T10:06:55;100898.06;;;12.83;65.13
71361;BME280;59166;48.908;1.870;2023-03-20T10:12:19;100889.53;;;12.65;67.78
71361;BME280;59166;48.908;1.870;2023-03-20T10:17:33;100878.09;;;12.58;67.82
71361;BME280;59166;48.908;1.870;2023-03-20T10:22:42;100889.53;;;12.65;68.96
71361;BME280;59166;48.908;1.870;2023-03-20T10:27:50;100885.91;;;12.86;66.56
71361;BME280;59166;48.908;1.870;2023-03-20T10:33:00;100894.16;;;13.06;65.34
71361;BME280;59166;48.908;1.870;2023-03-20T10:38:20;100882.50;;;13.11;69.33
71361;BME280;59166;48.908;1.870;2023-03-20T10:43:28;100882.28;;;13.17;65.88
71361;BME280;59166;48.908;1.870;2023-03-20T10:48:33;100885.50;;;13.09;66.83
71361;BME280;59166;48.908;1.870;2023-03-20T10:53:41;100878.91;;;12.95;68.51
71361;BME280;59166;48.908;1.870;2023-03-20T10:59:06;100880.34;;;12.71;69.00
71361;BME280;59166;48.908;1.870;2023-03-20T11:04:08;100880.56;;;12.59;68.36
71361;BME280;59166;48.908;1.870;2023-03-20T11:09:10;100867.97;;;12.80;68.54
71361;BME280;59166;48.908;1.870;2023-03-20T11:14:18;100871.06;;;12.99;69.34
71361;BME280;59166;48.908;1.870;2023-03-20T11:19:21;100857.25;;;13.05;69.32
71361;BME280;59166;48.908;1.870;2023-03-20T11:24:28;100844.53;;;13.11;68.34
71361;BME280;59166;48.908;1.870;2023-03-20T11:29:35;100850.91;;;13.41;70.49
71361;BME280;59166;48.908;1.870;2023-03-20T11:34:37;100853.16;;;13.60;67.10
71361;BME280;59166;48.908;1.870;2023-03-20T11:39:52;100850.41;;;13.55;68.52
71361;BME280;59166;48.908;1.870;2023-03-20T11:44:59;100863.94;;;13.45;68.53
71361;BME280;59166;48.908;1.870;2023-03-20T11:50:03;100853.13;;;13.55;67.28
71361;BME280;59166;48.908;1.870;2023-03-20T11:55:07;100848.19;;;13.36;69.25
71361;BME280;59166;48.908;1.870;2023-03-20T12:00:23;100851.19;;;13.45;70.40
71361;BME280;59166;48.908;1.870;2023-03-20T12:05:30;100836.06;;;13.54;67.92
71361;BME280;59166;48.908;1.870;2023-03-20T12:10:35;100837.69;;;13.65;69.82
71361;BME280;59166;48.908;1.870;2023-03-20T12:15:41;100832.31;;;13.70;68.40
71361;BME280;59166;48.908;1.870;2023-03-20T12:20:48;100831.81;;;13.83;69.35
71361;BME280;59166;48.908;1.870;2023-03-20T12:25:56;100827.47;;;13.77;68.08
71361;BME280;59166;48.908;1.870;2023-03-20T12:31:16;100828.72;;;13.65;68.67
71361;BME280;59166;48.908;1.870;2023-03-20T12:36:25;100828.22;;;13.68;69.95
71361;BME280;59166;48.908;1.870;2023-03-20T12:41:36;100826.06;;;13.70;70.22
71361;BME280;59166;48.908;1.870;2023-03-20T12:47:13;100815.72;;;13.67;70.38
71361;BME280;59166;48.908;1.870;2023-03-20T12:52:20;100807.09;;;13.80;69.72
71361;BME280;59166;48.908;1.870;2023-03-20T12:57:27;100797.31;;;13.89;71.18
71361;BME280;59166;48.908;1.870;2023-03-20T13:02:44;100803.31;;;14.06;71.50
71361;BME280;59166;48.908;1.870;2023-03-20T13:08:01;100806.84;;;14.17;71.33
71361;BME280;59166;48.908;1.870;2023-03-20T13:13:13;100788.63;;;14.27;71.23
71361;BME280;59166;48.908;1.870;2023-03-20T13:18:21;100785.63;;;14.39;69.44
71361;BME280;59166;48.908;1.870;2023-03-20T13:23:26;100786.44;;;14.50;72.18
71361;BME280;59166;48.908;1.870;2023-03-20T13:28:37;100791.03;;;14.59;70.04
71361;BME280;59166;48.908;1.870;2023-03-20T13:33:46;100785.09;;;14.42;69.28
71361;BME280;59166;48.908;1.870;2023-03-20T13:38:55;100773.69;;;14.30;66.56
71361;BME280;59166;48.908;1.870;2023-03-20T13:43:59;100768.78;;;14.42;62.19
71361;BME280;59166;48.908;1.870;2023-03-20T13:49:13;100761.41;;;14.58;63.29
71361;BME280;59166;48.908;1.870;2023-03-20T13:54:25;100767.34;;;14.75;63.97
71361;BME280;59166;48.908;1.870;2023-03-20T13:59:38;100754.25;;;14.87;62.93
71361;BME280;59166;48.908;1.870;2023-03-20T14:04:45;100747.63;;;15.18;63.37
71361;BME280;59166;48.908;1.870;2023-03-20T14:09:46;100742.13;;;15.28;60.65
71361;BME280;59166;48.908;1.870;2023-03-20T14:14:49;100744.72;;;15.54;58.83
71361;BME280;59166;48.908;1.870;2023-03-20T14:19:54;100732.38;;;15.22;60.63
71361;BME280;59166;48.908;1.870;2023-03-20T14:24:58;100737.63;;;15.04;62.87
71361;BME280;59166;48.908;1.870;2023-03-20T14:30:36;100731.44;;;14.73;64.11
71361;BME280;59166;48.908;1.870;2023-03-20T14:35:42;100733.91;;;14.74;62.33
71361;BME280;59166;48.908;1.870;2023-03-20T14:40:51;100728.47;;;14.74;62.60
71361;BME280;59166;48.908;1.870;2023-03-20T14:45:58;100718.63;;;14.83;62.46
71361;BME280;59166;48.908;1.870;2023-03-20T14:51:13;100702.34;;;14.78;64.88
71361;BME280;59166;48.908;1.870;2023-03-20T14:56:16;100694.13;;;14.88;64.62
71361;BME280;59166;48.908;1.870;2023-03-20T15:06:48;100692.06;;;14.65;65.37
71361;BME280;59166;48.908;1.870;2023-03-20T15:11:52;100689.59;;;14.69;65.59
71361;BME280;59166;48.908;1.870;2023-03-20T15:16:56;100685.78;;;14.75;66.17
71361;BME280;59166;48.908;1.870;2023-03-20T15:22:00;100680.81;;;14.87;63.82
71361;BME280;59166;48.908;1.870;2023-03-20T15:27:01;100678.63;;;14.94;62.80
71361;BME280;59166;48.908;1.870;2023-03-20T15:32:02;100667.72;;;14.99;65.18
71361;BME280;59166;48.908;1.870;2023-03-20T15:37:07;100665.97;;;15.18;64.04
71361;BME280;59166;48.908;1.870;2023-03-20T15:42:13;100665.56;;;14.96;61.52
71361;BME280;59166;48.908;1.870;2023-03-20T15:47:15;100655.81;;;14.85;61.86
71361;BME280;59166;48.908;1.870;2023-03-20T15:52:23;100660.16;;;14.86;61.50
71361;BME280;59166;48.908;1.870;2023-03-20T15:57:30;100652.06;;;14.76;62.17
71361;BME280;59166;48.908;1.870;2023-03-20T16:02:34;100639.84;;;14.63;62.30
71361;BME280;59166;48.908;1.870;2023-03-20T16:07:37;100641.75;;;14.68;62.27
71361;BME280;59166;48.908;1.870;2023-03-20T16:12:46;100630.88;;;14.63;60.43
71361;BME280;59166;48.908;1.870;2023-03-20T16:17:48;100632.28;;;14.55;60.77
71361;BME280;59166;48.908;1.870;2023-03-20T16:22:55;100633.91;;;14.56;63.01
71361;BME280;59166;48.908;1.870;2023-03-20T16:27:57;100619.56;;;14.40;63.27
71361;BME280;59166;48.908;1.870;2023-03-20T16:33:00;100612.22;;;14.36;63.87
71361;BME280;59166;48.908;1.870;2023-03-20T16:38:15;100614.44;;;14.29;65.75
71361;BME280;59166;48.908;1.870;2023-03-20T16:43:26;100607.66;;;14.26;66.75
71361;BME280;59166;48.908;1.870;2023-03-20T16:48:30;100612.56;;;14.19;67.21
71361;BME280;59166;48.908;1.870;2023-03-20T16:53:39;100607.41;;;14.18;68.31
71361;BME280;59166;48.908;1.870;2023-03-20T16:58:41;100603.06;;;14.22;69.40
71361;BME280;59166;48.908;1.870;2023-03-20T17:03:47;100610.41;;;14.16;68.84
71361;BME280;59166;48.908;1.870;2023-03-20T17:08:52;100615.28;;;14.19;67.92
71361;BME280;59166;48.908;1.870;2023-03-20T17:13:53;100606.59;;;14.12;69.90
71361;BME280;59166;48.908;1.870;2023-03-20T17:18:58;100613.97;;;14.12;69.94
71361;BME280;59166;48.908;1.870;2023-03-20T17:24:01;100614.25;;;13.95;71.26
71361;BME280;59166;48.908;1.870;2023-03-20T17:29:02;100615.09;;;13.90;70.63
71361;BME280;59166;48.908;1.870;2023-03-20T17:34:04;100610.75;;;13.79;70.07
71361;BME280;59166;48.908;1.870;2023-03-20T17:39:19;100613.22;;;13.71;72.81
71361;BME280;59166;48.908;1.870;2023-03-20T17:44:20;100621.06;;;13.67;71.92
71361;BME280;59166;48.908;1.870;2023-03-20T17:49:21;100615.09;;;13.60;74.06
71361;BME280;59166;48.908;1.870;2023-03-20T17:54:24;100619.16;;;13.53;74.17
71361;BME280;59166;48.908;1.870;2023-03-20T17:59:24;100619.44;;;13.46;73.99
71361;BME280;59166;48.908;1.870;2023-03-20T18:04:25;100627.31;;;13.43;74.28
71361;BME280;59166;48.908;1.870;2023-03-20T18:09:27;100629.75;;;13.34;74.34
71361;BME280;59166;48.908;1.870;2023-03-20T18:14:28;100632.19;;;13.30;75.37
71361;BME280;59166;48.908;1.870;2023-03-20T18:19:29;100631.91;;;13.27;75.36
71361;BME280;59166;48.908;1.870;2023-03-20T18:24:31;100644.09;;;13.24;76.54
71361;BME280;59166;48.908;1.870;2023-03-20T18:29:32;100638.13;;;13.17;76.14
71361;BME280;59166;48.908;1.870;2023-03-20T18:34:33;100640.31;;;13.15;76.35
71361;BME280;59166;48.908;1.870;2023-03-20T18:39:35;100642.19;;;13.15;76.53
71361;BME280;59166;48.908;1.870;2023-03-20T18:44:36;100643.03;;;13.10;76.90
71361;BME280;59166;48.908;1.870;2023-03-20T18:49:37;100645.72;;;13.10;77.66
71361;BME280;59166;48.908;1.870;2023-03-20T18:54:39;100646.25;;;13.07;77.52
71361;BME280;59166;48.908;1.870;2023-03-20T18:59:40;100645.19;;;13.03;78.36
71361;BME280;59166;48.908;1.870;2023-03-20T19:04:41;100640.00;;;13.02;79.08
71361;BME280;59166;48.908;1.870;2023-03-20T19:09:43;100632.38;;;12.94;79.97
71361;BME280;59166;48.908;1.870;2023-03-20T19:14:44;100635.91;;;12.94;80.38
71361;BME280;59166;48.908;1.870;2023-03-20T19:19:45;100626.97;;;12.88;81.06
71361;BME280;59166;48.908;1.870;2023-03-20T19:24:47;100624.78;;;12.85;81.00
71361;BME280;59166;48.908;1.870;2023-03-20T19:29:48;100622.88;;;12.81;80.94
71361;BME280;59166;48.908;1.870;2023-03-20T19:34:49;100619.34;;;12.80;80.45
71361;BME280;59166;48.908;1.870;2023-03-20T19:39:51;100623.41;;;12.78;80.79
71361;BME280;59166;48.908;1.870;2023-03-20T19:44:52;100620.94;;;12.71;80.94
71361;BME280;59166;48.908;1.870;2023-03-20T19:49:53;100615.25;;;12.63;81.00
71361;BME280;59166;48.908;1.870;2023-03-20T19:54:56;100606.00;;;12.59;81.17
71361;BME280;59166;48.908;1.870;2023-03-20T19:59:56;100597.88;;;12.59;81.34
71361;BME280;59166;48.908;1.870;2023-03-20T20:04:57;100594.06;;;12.60;81.12
71361;BME280;59166;48.908;1.870;2023-03-20T20:09:59;100594.84;;;12.50;81.61
71361;BME280;59166;48.908;1.870;2023-03-20T20:15:00;100598.09;;;12.47;81.75
71361;BME280;59166;48.908;1.870;2023-03-20T20:20:01;100593.22;;;12.44;82.14
71361;BME280;59166;48.908;1.870;2023-03-20T20:25:03;100586.94;;;12.33;82.60
71361;BME280;59166;48.908;1.870;2023-03-20T20:30:06;100585.88;;;12.39;82.32
71361;BME280;59166;48.908;1.870;2023-03-20T20:35:09;100583.63;;;12.26;82.76
71361;BME280;59166;48.908;1.870;2023-03-20T20:40:14;100585.50;;;12.21;83.43
71361;BME280;59166;48.908;1.870;2023-03-20T20:45:15;100576.25;;;12.17;84.27
71361;BME280;59166;48.908;1.870;2023-03-20T20:50:18;100583.56;;;12.16;84.67
71361;BME280;59166;48.908;1.870;2023-03-20T20:55:21;100574.91;;;12.19;84.75
71361;BME280;59166;48.908;1.870;2023-03-20T21:00:23;100573.03;;;12.20;84.92
71361;BME280;59166;48.908;1.870;2023-03-20T21:10:48;100563.25;;;12.14;85.66
71361;BME280;59166;48.908;1.870;2023-03-20T21:21:39;100558.13;;;12.12;85.89
71361;BME280;59166;48.908;1.870;2023-03-20T21:26:45;100551.03;;;12.06;86.29
71361;BME280;59166;48.908;1.870;2023-03-20T21:31:49;100546.72;;;12.05;86.71
71361;BME280;59166;48.908;1.870;2023-03-20T21:36:50;100552.09;;;12.00;86.65
71361;BME280;59166;48.908;1.870;2023-03-20T21:41:57;100544.53;;;12.02;86.89
71361;BME280;59166;48.908;1.870;2023-03-20T21:47:31;100536.41;;;12.02;87.00
71361;BME280;59166;48.908;1.870;2023-03-20T21:53:03;100538.31;;;12.02;86.88
71361;BME280;59166;48.908;1.870;2023-03-20T21:58:05;100525.00;;;11.95;86.81
71361;BME280;59166;48.908;1.870;2023-03-20T22:03:10;100528.78;;;11.99;86.55
71361;BME280;59166;48.908;1.870;2023-03-20T22:08:32;100535.31;;;11.98;86.94
71361;BME280;59166;48.908;1.870;2023-03-20T22:13:47;100535.25;;;11.93;87.00
71361;BME280;59166;48.908;1.870;2023-03-20T22:18:54;100537.44;;;11.91;87.44
71361;BME280;59166;48.908;1.870;2023-03-20T22:23:55;100533.91;;;11.96;86.84
71361;BME280;59166;48.908;1.870;2023-03-20T22:28:57;100525.75;;;11.85;87.66
71361;BME280;59166;48.908;1.870;2023-03-20T22:33:58;100522.22;;;11.80;87.52
71361;BME280;59166;48.908;1.870;2023-03-20T22:38:59;100516.78;;;11.75;87.30
71361;BME280;59166;48.908;1.870;2023-03-20T22:44:01;100513.50;;;11.73;87.19
71361;BME280;59166;48.908;1.870;2023-03-20T22:49:03;100504.28;;;11.69;86.89
71361;BME280;59166;48.908;1.870;2023-03-20T22:54:04;100502.09;;;11.66;86.20
71361;BME280;59166;48.908;1.870;2023-03-20T22:59:07;100492.88;;;11.62;87.19
71361;BME280;59166;48.908;1.870;2023-03-20T23:04:08;100494.50;;;11.58;87.61
71361;BME280;59166;48.908;1.870;2023-03-20T23:09:08;100485.81;;;11.56;87.36
71361;BME280;59166;48.908;1.870;2023-03-20T23:14:10;100478.78;;;11.55;87.73
71361;BME280;59166;48.908;1.870;2023-03-20T23:19:12;100467.09;;;11.49;87.57
71361;BME280;59166;48.908;1.870;2023-03-20T23:24:12;100457.94;;;11.50;87.56
71361;BME280;59166;48.908;1.870;2023-03-20T23:29:14;100450.06;;;11.44;87.68
71361;BME280;59166;48.908;1.870;2023-03-20T23:34:15;100443.28;;;11.41;87.63
71361;BME280;59166;48.908;1.870;2023-03-20T23:39:16;100441.34;;;11.42;86.45
71361;BME280;59166;48.908;1.870;2023-03-20T23:44:18;100443.00;;;11.43;86.94
71361;BME280;59166;48.908;1.870;2023-03-20T23:49:18;100440.28;;;11.43;87.09
71361;BME280;59166;48.908;1.870;2023-03-20T23:54:19;100436.47;;;11.38;87.33
71361;BME280;59166;48.908;1.870;2023-03-20T23:59:21;100435.94;;;11.42;87.48
